sensor_id;sensor_type;location;lat;lon;timestamp;P1;durP1;ratioP1;P2;durP2;ratioP2
37877;SDS011;23715;53.652;8.516;2023-04-24T00:04:41;47.38;;;44.58;;
37877;SDS011;23715;53.652;8.516;2023-04-24T00:09:44;50.40;;;47.47;;
37877;SDS011;23715;53.652;8.516;2023-04-24T00:14:46;48.65;;;45.95;;
37877;SDS011;23715;53.652;8.516;2023-04-24T00:19:46;46.80;;;44.30;;
37877;SDS011;23715;53.652;8.516;2023-04-24T00:24:49;48.95;;;46.37;;
37877;SDS011;23715;53.652;8.516;2023-04-24T00:29:49;47.05;;;44.33;;
37877;SDS011;23715;53.652;8.516;2023-04-24T00:39:49;44.42;;;42.03;;
37877;SDS011;23715;53.652;8.516;2023-04-24T00:44:50;43.80;;;41.58;;
37877;SDS011;23715;53.652;8.516;2023-04-24T00:49:51;47.03;;;44.53;;
37877;SDS011;23715;53.652;8.516;2023-04-24T00:54:51;45.40;;;42.83;;
37877;SDS011;23715;53.652;8.516;2023-04-24T00:59:52;45.50;;;43.15;;
37877;SDS011;23715;53.652;8.516;2023-04-24T01:04:53;44.25;;;41.85;;
37877;SDS011;23715;53.652;8.516;2023-04-24T01:09:53;45.15;;;42.75;;
37877;SDS011;23715;53.652;8.516;2023-04-24T01:14:54;46.35;;;43.75;;
37877;SDS011;23715;53.652;8.516;2023-04-24T01:19:55;42.60;;;40.45;;
37877;SDS011;23715;53.652;8.516;2023-04-24T01:24:55;45.80;;;43.25;;
37877;SDS011;23715;53.652;8.516;2023-04-24T01:29:56;41.08;;;38.88;;
37877;SDS011;23715;53.652;8.516;2023-04-24T01:34:57;33.25;;;31.42;;
37877;SDS011;23715;53.652;8.516;2023-04-24T01:39:57;28.83;;;27.30;;
37877;SDS011;23715;53.652;8.516;2023-04-24T01:44:59;29.25;;;27.58;;
37877;SDS011;23715;53.652;8.516;2023-04-24T01:50:02;29.12;;;27.73;;
37877;SDS011;23715;53.652;8.516;2023-04-24T01:55:04;28.37;;;26.97;;
37877;SDS011;23715;53.652;8.516;2023-04-24T02:00:05;33.02;;;31.25;;
37877;SDS011;23715;53.652;8.516;2023-04-24T02:05:12;35.88;;;34.08;;
37877;SDS011;23715;53.652;8.516;2023-04-24T02:10:12;39.05;;;37.05;;
37877;SDS011;23715;53.652;8.516;2023-04-24T02:15:15;32.42;;;30.80;;
37877;SDS011;23715;53.652;8.516;2023-04-24T02:20:16;34.15;;;32.35;;
37877;SDS011;23715;53.652;8.516;2023-04-24T02:25:16;31.37;;;29.57;;
37877;SDS011;23715;53.652;8.516;2023-04-24T02:30:17;30.10;;;28.40;;
37877;SDS011;23715;53.652;8.516;2023-04-24T02:40:17;30.80;;;29.20;;
37877;SDS011;23715;53.652;8.516;2023-04-24T02:45:18;32.13;;;30.55;;
37877;SDS011;23715;53.652;8.516;2023-04-24T02:50:18;33.40;;;31.48;;
37877;SDS011;23715;53.652;8.516;2023-04-24T02:55:19;33.55;;;31.82;;
37877;SDS011;23715;53.652;8.516;2023-04-24T03:00:19;33.05;;;31.35;;
37877;SDS011;23715;53.652;8.516;2023-04-24T03:05:19;33.40;;;31.68;;
37877;SDS011;23715;53.652;8.516;2023-04-24T03:10:20;32.48;;;30.77;;
37877;SDS011;23715;53.652;8.516;2023-04-24T03:15:22;32.25;;;30.45;;
37877;SDS011;23715;53.652;8.516;2023-04-24T03:20:22;30.88;;;29.02;;
37877;SDS011;23715;53.652;8.516;2023-04-24T03:25:23;31.90;;;30.02;;
37877;SDS011;23715;53.652;8.516;2023-04-24T03:30:24;32.40;;;30.70;;
37877;SDS011;23715;53.652;8.516;2023-04-24T03:35:26;30.72;;;29.10;;
37877;SDS011;23715;53.652;8.516;2023-04-24T03:40:28;34.35;;;32.53;;
37877;SDS011;23715;53.652;8.516;2023-04-24T03:45:29;33.45;;;31.65;;
37877;SDS011;23715;53.652;8.516;2023-04-24T03:50:29;34.63;;;32.83;;
37877;SDS011;23715;53.652;8.516;2023-04-24T03:55:32;36.98;;;34.95;;
37877;SDS011;23715;53.652;8.516;2023-04-24T04:00:33;37.35;;;35.10;;
37877;SDS011;23715;53.652;8.516;2023-04-24T04:05:35;34.60;;;32.45;;
37877;SDS011;23715;53.652;8.516;2023-04-24T04:10:36;34.80;;;32.90;;
37877;SDS011;23715;53.652;8.516;2023-04-24T04:15:37;38.08;;;35.63;;
37877;SDS011;23715;53.652;8.516;2023-04-24T04:20:38;39.45;;;37.17;;
37877;SDS011;23715;53.652;8.516;2023-04-24T04:25:39;36.90;;;34.75;;
37877;SDS011;23715;53.652;8.516;2023-04-24T04:30:40;38.35;;;36.15;;
37877;SDS011;23715;53.652;8.516;2023-04-24T04:35:42;37.80;;;35.55;;
37877;SDS011;23715;53.652;8.516;2023-04-24T04:40:43;37.48;;;35.38;;
37877;SDS011;23715;53.652;8.516;2023-04-24T04:45:45;36.90;;;34.60;;
37877;SDS011;23715;53.652;8.516;2023-04-24T04:50:51;38.35;;;35.85;;
37877;SDS011;23715;53.652;8.516;2023-04-24T04:55:53;37.83;;;35.52;;
37877;SDS011;23715;53.652;8.516;2023-04-24T05:00:55;39.33;;;36.80;;
37877;SDS011;23715;53.652;8.516;2023-04-24T05:05:58;41.95;;;39.23;;
37877;SDS011;23715;53.652;8.516;2023-04-24T05:10:58;41.13;;;38.70;;
37877;SDS011;23715;53.652;8.516;2023-04-24T05:16:00;41.73;;;39.15;;
37877;SDS011;23715;53.652;8.516;2023-04-24T05:21:01;43.40;;;40.90;;
37877;SDS011;23715;53.652;8.516;2023-04-24T05:26:01;43.23;;;40.65;;
37877;SDS011;23715;53.652;8.516;2023-04-24T05:31:02;38.30;;;36.00;;
37877;SDS011;23715;53.652;8.516;2023-04-24T05:36:03;38.63;;;36.42;;
37877;SDS011;23715;53.652;8.516;2023-04-24T05:41:05;42.05;;;39.50;;
37877;SDS011;23715;53.652;8.516;2023-04-24T05:46:07;42.30;;;39.90;;
37877;SDS011;23715;53.652;8.516;2023-04-24T05:51:09;42.03;;;39.38;;
37877;SDS011;23715;53.652;8.516;2023-04-24T05:56:09;45.70;;;43.10;;
37877;SDS011;23715;53.652;8.516;2023-04-24T06:01:09;44.55;;;41.88;;
37877;SDS011;23715;53.652;8.516;2023-04-24T06:06:10;45.85;;;43.15;;
37877;SDS011;23715;53.652;8.516;2023-04-24T06:16:12;44.20;;;41.58;;
37877;SDS011;23715;53.652;8.516;2023-04-24T06:21:15;41.48;;;39.08;;
37877;SDS011;23715;53.652;8.516;2023-04-24T06:26:16;42.10;;;39.58;;
37877;SDS011;23715;53.652;8.516;2023-04-24T06:31:16;44.70;;;42.10;;
37877;SDS011;23715;53.652;8.516;2023-04-24T06:36:16;44.75;;;42.00;;
37877;SDS011;23715;53.652;8.516;2023-04-24T06:46:18;48.97;;;46.03;;
37877;SDS011;23715;53.652;8.516;2023-04-24T06:51:20;45.40;;;42.70;;
37877;SDS011;23715;53.652;8.516;2023-04-24T06:56:23;45.17;;;42.40;;
37877;SDS011;23715;53.652;8.516;2023-04-24T07:01:25;46.20;;;43.15;;
37877;SDS011;23715;53.652;8.516;2023-04-24T07:06:25;44.33;;;41.73;;
37877;SDS011;23715;53.652;8.516;2023-04-24T07:11:30;43.90;;;41.40;;
37877;SDS011;23715;53.652;8.516;2023-04-24T07:16:31;46.02;;;43.25;;
37877;SDS011;23715;53.652;8.516;2023-04-24T07:21:31;43.92;;;41.37;;
37877;SDS011;23715;53.652;8.516;2023-04-24T07:26:31;43.25;;;40.58;;
37877;SDS011;23715;53.652;8.516;2023-04-24T07:31:32;42.93;;;40.40;;
37877;SDS011;23715;53.652;8.516;2023-04-24T07:36:32;46.20;;;43.38;;
37877;SDS011;23715;53.652;8.516;2023-04-24T07:41:33;43.73;;;41.02;;
37877;SDS011;23715;53.652;8.516;2023-04-24T07:46:34;42.90;;;40.40;;
37877;SDS011;23715;53.652;8.516;2023-04-24T07:51:34;46.75;;;43.95;;
37877;SDS011;23715;53.652;8.516;2023-04-24T07:56:36;44.70;;;42.00;;
37877;SDS011;23715;53.652;8.516;2023-04-24T08:01:41;45.78;;;42.98;;
37877;SDS011;23715;53.652;8.516;2023-04-24T08:06:41;46.20;;;43.60;;
37877;SDS011;23715;53.652;8.516;2023-04-24T08:11:41;46.95;;;44.03;;
37877;SDS011;23715;53.652;8.516;2023-04-24T08:16:43;44.80;;;42.10;;
37877;SDS011;23715;53.652;8.516;2023-04-24T08:21:45;43.50;;;40.80;;
37877;SDS011;23715;53.652;8.516;2023-04-24T08:26:46;40.80;;;38.45;;
37877;SDS011;23715;53.652;8.516;2023-04-24T08:31:47;39.93;;;37.73;;
37877;SDS011;23715;53.652;8.516;2023-04-24T08:41:48;40.38;;;38.23;;
37877;SDS011;23715;53.652;8.516;2023-04-24T08:46:49;43.87;;;41.28;;
37877;SDS011;23715;53.652;8.516;2023-04-24T08:51:52;45.55;;;42.67;;
37877;SDS011;23715;53.652;8.516;2023-04-24T08:56:53;45.17;;;42.25;;
37877;SDS011;23715;53.652;8.516;2023-04-24T09:01:56;46.63;;;43.83;;
37877;SDS011;23715;53.652;8.516;2023-04-24T09:06:58;43.55;;;40.80;;
37877;SDS011;23715;53.652;8.516;2023-04-24T09:12:00;45.03;;;42.23;;
37877;SDS011;23715;53.652;8.516;2023-04-24T09:17:02;42.30;;;39.70;;
37877;SDS011;23715;53.652;8.516;2023-04-24T09:22:05;46.05;;;43.35;;
37877;SDS011;23715;53.652;8.516;2023-04-24T09:27:10;42.70;;;40.10;;
37877;SDS011;23715;53.652;8.516;2023-04-24T09:32:18;48.10;;;45.20;;
37877;SDS011;23715;53.652;8.516;2023-04-24T09:37:27;47.78;;;44.63;;
37877;SDS011;23715;53.652;8.516;2023-04-24T09:42:28;42.33;;;39.83;;
37877;SDS011;23715;53.652;8.516;2023-04-24T09:47:37;39.45;;;37.13;;
37877;SDS011;23715;53.652;8.516;2023-04-24T09:52:44;39.95;;;37.55;;
37877;SDS011;23715;53.652;8.516;2023-04-24T09:57:49;41.98;;;39.48;;
37877;SDS011;23715;53.652;8.516;2023-04-24T10:02:55;41.02;;;38.50;;
37877;SDS011;23715;53.652;8.516;2023-04-24T10:08:04;42.55;;;40.05;;
37877;SDS011;23715;53.652;8.516;2023-04-24T10:13:05;45.35;;;42.65;;
37877;SDS011;23715;53.652;8.516;2023-04-24T10:18:09;48.58;;;45.67;;
37877;SDS011;23715;53.652;8.516;2023-04-24T10:23:10;49.05;;;46.10;;
37877;SDS011;23715;53.652;8.516;2023-04-24T10:28:11;49.40;;;46.40;;
37877;SDS011;23715;53.652;8.516;2023-04-24T10:33:12;53.08;;;49.98;;
37877;SDS011;23715;53.652;8.516;2023-04-24T10:38:14;49.10;;;46.20;;
37877;SDS011;23715;53.652;8.516;2023-04-24T10:43:17;49.25;;;46.15;;
37877;SDS011;23715;53.652;8.516;2023-04-24T10:48:18;48.95;;;45.85;;
37877;SDS011;23715;53.652;8.516;2023-04-24T10:53:24;44.93;;;42.23;;
37877;SDS011;23715;53.652;8.516;2023-04-24T10:58:38;45.38;;;42.67;;
37877;SDS011;23715;53.652;8.516;2023-04-24T11:03:41;47.25;;;44.48;;
37877;SDS011;23715;53.652;8.516;2023-04-24T11:08:45;44.77;;;42.17;;
37877;SDS011;23715;53.652;8.516;2023-04-24T11:24:23;43.28;;;40.83;;
37877;SDS011;23715;53.652;8.516;2023-04-24T11:29:40;45.40;;;42.55;;
37877;SDS011;23715;53.652;8.516;2023-04-24T11:34:45;51.85;;;48.98;;
37877;SDS011;23715;53.652;8.516;2023-04-24T11:39:46;61.05;;;57.65;;
37877;SDS011;23715;53.652;8.516;2023-04-24T11:44:49;57.05;;;53.75;;
37877;SDS011;23715;53.652;8.516;2023-04-24T11:49:50;63.98;;;59.83;;
37877;SDS011;23715;53.652;8.516;2023-04-24T11:54:51;68.07;;;63.85;;
37877;SDS011;23715;53.652;8.516;2023-04-24T11:59:51;63.23;;;58.60;;
37877;SDS011;23715;53.652;8.516;2023-04-24T12:04:53;64.40;;;59.83;;
37877;SDS011;23715;53.652;8.516;2023-04-24T12:14:58;81.87;;;75.28;;
37877;SDS011;23715;53.652;8.516;2023-04-24T12:20:06;86.25;;;80.47;;
37877;SDS011;23715;53.652;8.516;2023-04-24T12:25:09;106.05;;;99.55;;
37877;SDS011;23715;53.652;8.516;2023-04-24T12:30:10;117.47;;;110.08;;
37877;SDS011;23715;53.652;8.516;2023-04-24T12:35:12;110.92;;;104.12;;
37877;SDS011;23715;53.652;8.516;2023-04-24T12:40:14;110.17;;;103.53;;
37877;SDS011;23715;53.652;8.516;2023-04-24T12:45:17;119.62;;;111.52;;
37877;SDS011;23715;53.652;8.516;2023-04-24T12:50:18;116.80;;;109.25;;
37877;SDS011;23715;53.652;8.516;2023-04-24T12:55:18;124.45;;;115.95;;
37877;SDS011;23715;53.652;8.516;2023-04-24T13:00:18;117.72;;;109.63;;
37877;SDS011;23715;53.652;8.516;2023-04-24T13:10:19;132.57;;;124.17;;
37877;SDS011;23715;53.652;8.516;2023-04-24T13:15:20;129.27;;;120.72;;
37877;SDS011;23715;53.652;8.516;2023-04-24T13:20:20;131.52;;;122.98;;
37877;SDS011;23715;53.652;8.516;2023-04-24T13:25:20;143.07;;;133.40;;
37877;SDS011;23715;53.652;8.516;2023-04-24T13:30:21;133.12;;;123.70;;
37877;SDS011;23715;53.652;8.516;2023-04-24T13:35:22;135.45;;;127.07;;
37877;SDS011;23715;53.652;8.516;2023-04-24T13:40:22;133.30;;;124.30;;
37877;SDS011;23715;53.652;8.516;2023-04-24T13:45:22;138.07;;;129.07;;
37877;SDS011;23715;53.652;8.516;2023-04-24T13:50:23;134.37;;;125.58;;
37877;SDS011;23715;53.652;8.516;2023-04-24T13:55:23;138.47;;;129.55;;
37877;SDS011;23715;53.652;8.516;2023-04-24T14:00:25;136.57;;;128.07;;
37877;SDS011;23715;53.652;8.516;2023-04-24T14:05:25;120.35;;;113.10;;
37877;SDS011;23715;53.652;8.516;2023-04-24T14:10:25;122.42;;;114.92;;
37877;SDS011;23715;53.652;8.516;2023-04-24T14:15:26;112.50;;;105.12;;
37877;SDS011;23715;53.652;8.516;2023-04-24T14:25:26;128.32;;;120.15;;
37877;SDS011;23715;53.652;8.516;2023-04-24T14:30:27;116.57;;;109.12;;
37877;SDS011;23715;53.652;8.516;2023-04-24T14:40:26;116.73;;;109.35;;
37877;SDS011;23715;53.652;8.516;2023-04-24T14:45:27;108.65;;;101.87;;
37877;SDS011;23715;53.652;8.516;2023-04-24T14:50:27;90.05;;;85.32;;
37877;SDS011;23715;53.652;8.516;2023-04-24T14:55:27;109.72;;;102.62;;
37877;SDS011;23715;53.652;8.516;2023-04-24T15:00:28;115.65;;;108.45;;
37877;SDS011;23715;53.652;8.516;2023-04-24T15:10:29;92.65;;;86.63;;
37877;SDS011;23715;53.652;8.516;2023-04-24T15:15:29;97.62;;;91.50;;
37877;SDS011;23715;53.652;8.516;2023-04-24T15:20:29;95.22;;;89.30;;
37877;SDS011;23715;53.652;8.516;2023-04-24T15:30:29;74.65;;;69.95;;
37877;SDS011;23715;53.652;8.516;2023-04-24T15:35:30;69.25;;;65.05;;
37877;SDS011;23715;53.652;8.516;2023-04-24T15:40:30;67.42;;;63.08;;
37877;SDS011;23715;53.652;8.516;2023-04-24T15:45:30;53.35;;;49.65;;
37877;SDS011;23715;53.652;8.516;2023-04-24T15:50:32;54.98;;;51.35;;
37877;SDS011;23715;53.652;8.516;2023-04-24T15:55:33;44.58;;;41.60;;
37877;SDS011;23715;53.652;8.516;2023-04-24T16:00:34;45.80;;;42.88;;
37877;SDS011;23715;53.652;8.516;2023-04-24T16:05:35;48.02;;;44.85;;
37877;SDS011;23715;53.652;8.516;2023-04-24T16:15:34;33.50;;;31.07;;
37877;SDS011;23715;53.652;8.516;2023-04-24T16:20:35;32.78;;;30.27;;
37877;SDS011;23715;53.652;8.516;2023-04-24T16:30:35;25.27;;;23.40;;
37877;SDS011;23715;53.652;8.516;2023-04-24T16:35:36;29.52;;;27.30;;
37877;SDS011;23715;53.652;8.516;2023-04-24T16:40:37;30.75;;;28.30;;
37877;SDS011;23715;53.652;8.516;2023-04-24T16:45:39;33.40;;;30.60;;
37877;SDS011;23715;53.652;8.516;2023-04-24T16:50:40;35.52;;;33.02;;
37877;SDS011;23715;53.652;8.516;2023-04-24T16:55:40;32.90;;;30.43;;
37877;SDS011;23715;53.652;8.516;2023-04-24T17:00:41;31.82;;;29.63;;
37877;SDS011;23715;53.652;8.516;2023-04-24T17:05:42;33.23;;;30.35;;
37877;SDS011;23715;53.652;8.516;2023-04-24T17:10:43;33.95;;;30.95;;
37877;SDS011;23715;53.652;8.516;2023-04-24T17:15:43;33.42;;;30.97;;
37877;SDS011;23715;53.652;8.516;2023-04-24T17:20:43;36.83;;;34.53;;
37877;SDS011;23715;53.652;8.516;2023-04-24T17:25:44;37.70;;;35.40;;
37877;SDS011;23715;53.652;8.516;2023-04-24T17:30:44;33.17;;;31.10;;
37877;SDS011;23715;53.652;8.516;2023-04-24T17:40:44;35.15;;;32.88;;
37877;SDS011;23715;53.652;8.516;2023-04-24T17:45:47;38.47;;;36.07;;
37877;SDS011;23715;53.652;8.516;2023-04-24T17:50:50;38.02;;;35.68;;
37877;SDS011;23715;53.652;8.516;2023-04-24T17:55:50;36.77;;;34.78;;
37877;SDS011;23715;53.652;8.516;2023-04-24T18:00:52;40.58;;;37.88;;
37877;SDS011;23715;53.652;8.516;2023-04-24T18:05:53;40.70;;;38.35;;
37877;SDS011;23715;53.652;8.516;2023-04-24T18:10:53;42.03;;;39.53;;
37877;SDS011;23715;53.652;8.516;2023-04-24T18:15:53;41.42;;;38.67;;
37877;SDS011;23715;53.652;8.516;2023-04-24T18:20:54;44.00;;;41.60;;
37877;SDS011;23715;53.652;8.516;2023-04-24T18:25:54;45.67;;;42.90;;
37877;SDS011;23715;53.652;8.516;2023-04-24T18:35:54;46.75;;;43.50;;
37877;SDS011;23715;53.652;8.516;2023-04-24T18:40:55;49.30;;;46.20;;
37877;SDS011;23715;53.652;8.516;2023-04-24T18:45:55;49.45;;;46.45;;
37877;SDS011;23715;53.652;8.516;2023-04-24T18:50:56;108.22;;;85.15;;
37877;SDS011;23715;53.652;8.516;2023-04-24T18:55:56;56.28;;;51.75;;
37877;SDS011;23715;53.652;8.516;2023-04-24T19:00:57;40.25;;;38.15;;
37877;SDS011;23715;53.652;8.516;2023-04-24T19:05:57;36.83;;;34.53;;
37877;SDS011;23715;53.652;8.516;2023-04-24T19:10:58;37.25;;;35.10;;
37877;SDS011;23715;53.652;8.516;2023-04-24T19:20:57;40.58;;;38.35;;
37877;SDS011;23715;53.652;8.516;2023-04-24T19:26:06;40.85;;;38.60;;
37877;SDS011;23715;53.652;8.516;2023-04-24T19:31:07;40.92;;;38.00;;
37877;SDS011;23715;53.652;8.516;2023-04-24T19:41:07;40.20;;;38.00;;
37877;SDS011;23715;53.652;8.516;2023-04-24T19:46:08;43.63;;;40.60;;
37877;SDS011;23715;53.652;8.516;2023-04-24T19:51:08;44.48;;;41.55;;
37877;SDS011;23715;53.652;8.516;2023-04-24T19:56:08;44.08;;;41.18;;
37877;SDS011;23715;53.652;8.516;2023-04-24T20:01:09;47.35;;;44.75;;
37877;SDS011;23715;53.652;8.516;2023-04-24T20:06:09;47.43;;;44.67;;
37877;SDS011;23715;53.652;8.516;2023-04-24T20:11:09;47.10;;;44.27;;
37877;SDS011;23715;53.652;8.516;2023-04-24T20:16:10;44.05;;;41.30;;
37877;SDS011;23715;53.652;8.516;2023-04-24T20:21:13;47.70;;;44.70;;
37877;SDS011;23715;53.652;8.516;2023-04-24T20:26:13;45.35;;;42.35;;
37877;SDS011;23715;53.652;8.516;2023-04-24T20:31:13;44.13;;;41.13;;
37877;SDS011;23715;53.652;8.516;2023-04-24T20:36:14;44.30;;;41.55;;
37877;SDS011;23715;53.652;8.516;2023-04-24T20:41:23;41.85;;;38.78;;
37877;SDS011;23715;53.652;8.516;2023-04-24T20:46:29;44.73;;;41.50;;
37877;SDS011;23715;53.652;8.516;2023-04-24T20:51:33;51.85;;;48.42;;
37877;SDS011;23715;53.652;8.516;2023-04-24T20:56:47;48.52;;;45.15;;
37877;SDS011;23715;53.652;8.516;2023-04-24T21:01:58;53.08;;;48.90;;
37877;SDS011;23715;53.652;8.516;2023-04-24T21:07:06;50.03;;;47.05;;
37877;SDS011;23715;53.652;8.516;2023-04-24T21:17:07;83.90;;;78.60;;
37877;SDS011;23715;53.652;8.516;2023-04-24T21:22:07;129.80;;;121.85;;
37877;SDS011;23715;53.652;8.516;2023-04-24T21:27:07;124.10;;;116.55;;
37877;SDS011;23715;53.652;8.516;2023-04-24T21:32:08;104.70;;;98.78;;
37877;SDS011;23715;53.652;8.516;2023-04-24T21:37:08;110.78;;;103.32;;
37877;SDS011;23715;53.652;8.516;2023-04-24T21:42:08;119.45;;;111.00;;
37877;SDS011;23715;53.652;8.516;2023-04-24T21:47:09;107.72;;;100.65;;
37877;SDS011;23715;53.652;8.516;2023-04-24T21:52:09;99.52;;;91.80;;
37877;SDS011;23715;53.652;8.516;2023-04-24T21:57:09;121.37;;;111.60;;
37877;SDS011;23715;53.652;8.516;2023-04-24T22:02:10;125.30;;;115.92;;
37877;SDS011;23715;53.652;8.516;2023-04-24T22:07:11;129.75;;;120.62;;
37877;SDS011;23715;53.652;8.516;2023-04-24T22:17:11;101.25;;;93.33;;
37877;SDS011;23715;53.652;8.516;2023-04-24T22:22:12;102.32;;;95.17;;
37877;SDS011;23715;53.652;8.516;2023-04-24T22:27:12;100.25;;;91.32;;
37877;SDS011;23715;53.652;8.516;2023-04-24T22:32:13;81.82;;;75.05;;
37877;SDS011;23715;53.652;8.516;2023-04-24T22:37:13;72.37;;;66.20;;
37877;SDS011;23715;53.652;8.516;2023-04-24T22:42:13;66.12;;;60.45;;
37877;SDS011;23715;53.652;8.516;2023-04-24T22:47:14;39.18;;;35.60;;
37877;SDS011;23715;53.652;8.516;2023-04-24T22:52:14;55.28;;;49.45;;
37877;SDS011;23715;53.652;8.516;2023-04-24T22:57:15;67.95;;;55.83;;
37877;SDS011;23715;53.652;8.516;2023-04-24T23:02:15;40.03;;;24.75;;
37877;SDS011;23715;53.652;8.516;2023-04-24T23:07:17;40.52;;;24.20;;
37877;SDS011;23715;53.652;8.516;2023-04-24T23:12:17;32.90;;;26.60;;
37877;SDS011;23715;53.652;8.516;2023-04-24T23:22:17;48.35;;;29.60;;
37877;SDS011;23715;53.652;8.516;2023-04-24T23:27:17;46.92;;;30.50;;
37877;SDS011;23715;53.652;8.516;2023-04-24T23:32:17;51.25;;;28.05;;
37877;SDS011;23715;53.652;8.516;2023-04-24T23:37:18;40.67;;;29.18;;
37877;SDS011;23715;53.652;8.516;2023-04-24T23:42:18;43.78;;;21.10;;
37877;SDS011;23715;53.652;8.516;2023-04-24T23:47:19;37.55;;;20.02;;
37877;SDS011;23715;53.652;8.516;2023-04-24T23:52:19;43.28;;;20.65;;
37877;SDS011;23715;53.652;8.516;2023-04-24T23:57:19;35.83;;;18.75;;
